sensor_id;sensor_type;location;lat;lon;timestamp;pressure;altitude;pressure_sealevel;temperature;humidity
9307;BME280;4691;47.612;7.610;2023-02-15T00:01:11;102068.75;;;-0.39;100.00
9307;BME280;4691;47.612;7.610;2023-02-15T00:03:36;101988.13;;;-0.39;100.00
9307;BME280;4691;47.612;7.610;2023-02-15T00:06:03;102007.56;;;-0.29;100.00
9307;BME280;4691;47.612;7.610;2023-02-15T00:08:28;102062.34;;;-0.55;100.00
9307;BME280;4691;47.612;7.610;2023-02-15T00:11:03;102092.66;;;-0.27;100.00
9307;BME280;4691;47.612;7.610;2023-02-15T00:13:31;102050.59;;;-0.27;100.00
9307;BME280;4691;47.612;7.610;2023-02-15T00:16:03;102103.22;;;-0.26;100.00
9307;BME280;4691;47.612;7.610;2023-02-15T00:18:30;102092.84;;;-0.18;100.00
9307;BME280;4691;47.612;7.610;2023-02-15T00:20:56;102058.84;;;-0.06;100.00
9307;BME280;4691;47.612;7.610;2023-02-15T00:23:22;102014.19;;;-0.03;100.00
9307;BME280;4691;47.612;7.610;2023-02-15T00:25:47;101980.19;;;0.11;100.00
9307;BME280;4691;47.612;7.610;2023-02-15T00:28:12;101948.66;;;0.16;100.00
9307;BME280;4691;47.612;7.610;2023-02-15T00:30:38;101876.44;;;-0.05;100.00
9307;BME280;4691;47.612;7.610;2023-02-15T00:33:03;101850.16;;;-0.02;100.00
9307;BME280;4691;47.612;7.610;2023-02-15T00:35:28;101828.13;;;-0.10;100.00
9307;BME280;4691;47.612;7.610;2023-02-15T00:37:55;101817.69;;;-0.04;100.00
9307;BME280;4691;47.612;7.610;2023-02-15T00:40:21;101786.22;;;0.07;100.00
9307;BME280;4691;47.612;7.610;2023-02-15T00:42:46;101773.88;;;0.02;100.00
9307;BME280;4691;47.612;7.610;2023-02-15T00:45:11;101772.25;;;0.13;100.00
9307;BME280;4691;47.612;7.610;2023-02-15T00:47:37;101743.59;;;0.40;100.00
9307;BME280;4691;47.612;7.610;2023-02-15T00:50:02;101694.31;;;0.24;100.00
9307;BME280;4691;47.612;7.610;2023-02-15T00:52:28;101681.22;;;0.33;100.00
9307;BME280;4691;47.612;7.610;2023-02-15T00:54:53;101649.56;;;0.24;100.00
9307;BME280;4691;47.612;7.610;2023-02-15T00:57:18;101664.16;;;-0.06;100.00
9307;BME280;4691;47.612;7.610;2023-02-15T00:59:44;101658.22;;;0.15;100.00
9307;BME280;4691;47.612;7.610;2023-02-15T01:02:09;101656.69;;;0.34;100.00
9307;BME280;4691;47.612;7.610;2023-02-15T01:04:35;101595.00;;;0.08;100.00
9307;BME280;4691;47.612;7.610;2023-02-15T01:07:00;101584.44;;;0.02;100.00
9307;BME280;4691;47.612;7.610;2023-02-15T01:09:27;101610.63;;;-0.11;100.00
9307;BME280;4691;47.612;7.610;2023-02-15T01:11:52;101756.41;;;0.07;100.00
9307;BME280;4691;47.612;7.610;2023-02-15T01:14:17;101756.56;;;0.19;100.00
9307;BME280;4691;47.612;7.610;2023-02-15T01:16:43;101761.72;;;0.13;100.00
9307;BME280;4691;47.612;7.610;2023-02-15T01:19:08;101754.84;;;0.21;100.00
9307;BME280;4691;47.612;7.610;2023-02-15T01:21:33;101730.41;;;0.34;100.00
9307;BME280;4691;47.612;7.610;2023-02-15T01:24:00;101675.72;;;0.06;100.00
9307;BME280;4691;47.612;7.610;2023-02-15T01:26:26;101677.47;;;0.10;100.00
9307;BME280;4691;47.612;7.610;2023-02-15T01:28:51;101648.66;;;0.22;100.00
9307;BME280;4691;47.612;7.610;2023-02-15T01:31:19;101617.03;;;0.16;100.00
9307;BME280;4691;47.612;7.610;2023-02-15T01:33:47;101581.09;;;0.21;100.00
9307;BME280;4691;47.612;7.610;2023-02-15T01:36:13;101565.22;;;0.12;100.00
9307;BME280;4691;47.612;7.610;2023-02-15T01:38:38;101552.16;;;0.24;100.00
9307;BME280;4691;47.612;7.610;2023-02-15T01:41:05;101542.38;;;0.08;100.00
9307;BME280;4691;47.612;7.610;2023-02-15T01:43:51;101517.06;;;0.25;100.00
9307;BME280;4691;47.612;7.610;2023-02-15T01:46:20;101478.41;;;0.15;100.00
9307;BME280;4691;47.612;7.610;2023-02-15T01:48:47;101494.00;;;-0.10;100.00
9307;BME280;4691;47.612;7.610;2023-02-15T01:51:16;101502.84;;;-0.02;100.00
9307;BME280;4691;47.612;7.610;2023-02-15T01:53:48;101505.31;;;-0.20;100.00
9307;BME280;4691;47.612;7.610;2023-02-15T01:56:19;101522.78;;;-0.27;100.00
9307;BME280;4691;47.612;7.610;2023-02-15T01:58:47;101538.88;;;0.06;100.00
9307;BME280;4691;47.612;7.610;2023-02-15T02:01:13;101526.50;;;-0.05;100.00
9307;BME280;4691;47.612;7.610;2023-02-15T02:03:55;101535.09;;;-0.21;100.00
9307;BME280;4691;47.612;7.610;2023-02-15T02:06:23;101533.22;;;-0.34;100.00
9307;BME280;4691;47.612;7.610;2023-02-15T02:08:49;101545.63;;;-0.21;100.00
9307;BME280;4691;47.612;7.610;2023-02-15T02:11:14;101565.63;;;-0.40;100.00
9307;BME280;4691;47.612;7.610;2023-02-15T02:13:42;101591.91;;;-0.40;100.00
9307;BME280;4691;47.612;7.610;2023-02-15T02:30:06;101649.56;;;-0.55;100.00
9307;BME280;4691;47.612;7.610;2023-02-15T02:35:17;101715.31;;;-0.52;100.00
9307;BME280;4691;47.612;7.610;2023-02-15T02:41:12;101794.47;;;-0.35;100.00
9307;BME280;4691;47.612;7.610;2023-02-15T02:43:20;101783.03;;;-0.37;100.00
9307;BME280;4691;47.612;7.610;2023-02-15T02:48:24;101842.63;;;-0.36;100.00
9307;BME280;4691;47.612;7.610;2023-02-15T02:50:50;101880.25;;;-0.43;100.00
9307;BME280;4691;47.612;7.610;2023-02-15T02:53:15;101928.13;;;-0.63;100.00
9307;BME280;4691;47.612;7.610;2023-02-15T02:58:35;102043.28;;;-0.43;100.00
9307;BME280;4691;47.612;7.610;2023-02-15T03:01:03;102071.28;;;-0.46;100.00
9307;BME280;4691;47.612;7.610;2023-02-15T03:03:37;102336.53;;;-0.23;100.00
9307;BME280;4691;47.612;7.610;2023-02-15T03:06:18;102295.22;;;-0.27;100.00
9307;BME280;4691;47.612;7.610;2023-02-15T03:08:47;102259.31;;;-0.25;100.00
9307;BME280;4691;47.612;7.610;2023-02-15T03:11:14;102232.97;;;-0.28;100.00
9307;BME280;4691;47.612;7.610;2023-02-15T03:13:40;102233.06;;;-0.22;100.00
9307;BME280;4691;47.612;7.610;2023-02-15T03:19:34;102424.09;;;-0.63;87.91
9307;BME280;4691;47.612;7.610;2023-02-15T03:22:53;102454.78;;;-0.64;91.85
9307;BME280;4691;47.612;7.610;2023-02-15T03:25:04;102491.97;;;-0.82;91.59
9307;BME280;4691;47.612;7.610;2023-02-15T03:27:36;102516.75;;;-0.72;92.11
9307;BME280;4691;47.612;7.610;2023-02-15T03:30:04;102547.69;;;-0.63;92.17
9307;BME280;4691;47.612;7.610;2023-02-15T03:32:32;102605.66;;;-0.59;91.29
9307;BME280;4691;47.612;7.610;2023-02-15T03:34:59;102633.06;;;-0.51;90.31
9307;BME280;4691;47.612;7.610;2023-02-15T03:37:33;102635.34;;;-0.63;90.69
9307;BME280;4691;47.612;7.610;2023-02-15T03:42:50;102593.59;;;-0.51;88.95
9307;BME280;4691;47.612;7.610;2023-02-15T03:45:24;102570.16;;;-0.43;88.14
9307;BME280;4691;47.612;7.610;2023-02-15T03:47:52;102625.19;;;-0.49;87.77
9307;BME280;4691;47.612;7.610;2023-02-15T03:50:26;102546.09;;;-0.57;89.17
9307;BME280;4691;47.612;7.610;2023-02-15T03:53:18;102531.44;;;-0.49;87.17
9307;BME280;4691;47.612;7.610;2023-02-15T03:55:47;102477.81;;;-0.54;87.40
9307;BME280;4691;47.612;7.610;2023-02-15T03:58:12;102433.81;;;-0.61;88.15
9307;BME280;4691;47.612;7.610;2023-02-15T04:01:05;102377.53;;;-0.69;90.58
9307;BME280;4691;47.612;7.610;2023-02-15T04:04:00;102377.22;;;-0.81;90.37
9307;BME280;4691;47.612;7.610;2023-02-15T04:06:28;102389.72;;;-0.71;88.50
9307;BME280;4691;47.612;7.610;2023-02-15T04:08:53;102348.00;;;-0.57;88.14
9307;BME280;4691;47.612;7.610;2023-02-15T04:11:37;102367.38;;;-0.54;84.86
9307;BME280;4691;47.612;7.610;2023-02-15T04:14:02;102336.66;;;-0.55;84.88
9307;BME280;4691;47.612;7.610;2023-02-15T04:16:47;102273.25;;;-0.69;86.71
9307;BME280;4691;47.612;7.610;2023-02-15T04:19:13;102299.59;;;-0.66;85.37
9307;BME280;4691;47.612;7.610;2023-02-15T04:21:56;102246.25;;;-0.99;89.59
9307;BME280;4691;47.612;7.610;2023-02-15T04:24:40;102277.41;;;-0.78;86.69
9307;BME280;4691;47.612;7.610;2023-02-15T04:27:24;102276.81;;;-0.67;84.71
9307;BME280;4691;47.612;7.610;2023-02-15T04:29:49;102262.09;;;-0.57;82.58
9307;BME280;4691;47.612;7.610;2023-02-15T04:32:15;102243.47;;;-0.69;83.48
9307;BME280;4691;47.612;7.610;2023-02-15T04:34:40;102210.66;;;-0.85;84.78
9307;BME280;4691;47.612;7.610;2023-02-15T04:37:05;102197.44;;;-0.90;84.78
9307;BME280;4691;47.612;7.610;2023-02-15T04:39:31;102166.53;;;-1.00;85.83
9307;BME280;4691;47.612;7.610;2023-02-15T04:41:57;102131.31;;;-1.08;87.40
9307;BME280;4691;47.612;7.610;2023-02-15T04:44:22;102140.34;;;-0.97;85.56
9307;BME280;4691;47.612;7.610;2023-02-15T04:46:47;102133.22;;;-1.02;85.61
9307;BME280;4691;47.612;7.610;2023-02-15T04:49:13;102108.66;;;-1.03;85.31
9307;BME280;4691;47.612;7.610;2023-02-15T04:51:38;102107.28;;;-0.85;83.84
9307;BME280;4691;47.612;7.610;2023-02-15T04:54:03;102075.38;;;-1.04;84.69
9307;BME280;4691;47.612;7.610;2023-02-15T04:56:29;102061.44;;;-1.00;83.92
9307;BME280;4691;47.612;7.610;2023-02-15T04:58:55;102024.56;;;-1.03;83.96
9307;BME280;4691;47.612;7.610;2023-02-15T05:01:20;101983.31;;;-1.10;83.86
9307;BME280;4691;47.612;7.610;2023-02-15T05:03:46;101956.16;;;-1.09;83.14
9307;BME280;4691;47.612;7.610;2023-02-15T05:06:11;101925.47;;;-1.12;82.57
9307;BME280;4691;47.612;7.610;2023-02-15T05:08:36;101916.72;;;-1.12;81.63
9307;BME280;4691;47.612;7.610;2023-02-15T05:11:02;101892.09;;;-1.16;81.70
9307;BME280;4691;47.612;7.610;2023-02-15T05:13:27;101877.25;;;-1.15;80.68
9307;BME280;4691;47.612;7.610;2023-02-15T05:15:53;101856.94;;;-1.24;81.13
9307;BME280;4691;47.612;7.610;2023-02-15T05:18:20;101836.69;;;-1.31;81.61
9307;BME280;4691;47.612;7.610;2023-02-15T05:20:46;101827.09;;;-1.29;80.67
9307;BME280;4691;47.612;7.610;2023-02-15T05:23:11;101806.75;;;-1.41;81.65
9307;BME280;4691;47.612;7.610;2023-02-15T05:25:37;101792.81;;;-1.37;81.80
9307;BME280;4691;47.612;7.610;2023-02-15T05:28:22;101790.16;;;-1.38;81.56
9307;BME280;4691;47.612;7.610;2023-02-15T05:30:50;101783.00;;;-1.47;82.19
9307;BME280;4691;47.612;7.610;2023-02-15T05:33:17;101778.66;;;-1.45;81.76
9307;BME280;4691;47.612;7.610;2023-02-15T05:35:42;101768.09;;;-1.48;82.10
9307;BME280;4691;47.612;7.610;2023-02-15T05:38:08;101749.63;;;-1.54;83.19
9307;BME280;4691;47.612;7.610;2023-02-15T05:40:34;101739.94;;;-1.58;83.39
9307;BME280;4691;47.612;7.610;2023-02-15T05:42:59;101728.50;;;-1.62;83.14
9307;BME280;4691;47.612;7.610;2023-02-15T05:45:24;101723.25;;;-1.60;83.46
9307;BME280;4691;47.612;7.610;2023-02-15T05:47:50;101704.78;;;-1.65;83.45
9307;BME280;4691;47.612;7.610;2023-02-15T05:50:15;101700.50;;;-1.60;82.27
9307;BME280;4691;47.612;7.610;2023-02-15T05:52:41;101678.50;;;-1.69;82.80
9307;BME280;4691;47.612;7.610;2023-02-15T05:55:06;101657.50;;;-1.69;82.14
9307;BME280;4691;47.612;7.610;2023-02-15T05:57:34;101646.94;;;-1.72;81.87
9307;BME280;4691;47.612;7.610;2023-02-15T05:59:59;101613.78;;;-1.67;80.48
9307;BME280;4691;47.612;7.610;2023-02-15T06:02:24;101604.94;;;-1.72;79.59
9307;BME280;4691;47.612;7.610;2023-02-15T06:04:49;101589.13;;;-1.79;79.77
9307;BME280;4691;47.612;7.610;2023-02-15T06:07:15;101559.38;;;-1.78;78.97
9307;BME280;4691;47.612;7.610;2023-02-15T06:09:40;101545.47;;;-1.73;78.15
9307;BME280;4691;47.612;7.610;2023-02-15T06:12:05;101517.59;;;-1.67;76.61
9307;BME280;4691;47.612;7.610;2023-02-15T06:14:31;101485.22;;;-1.66;75.49
9307;BME280;4691;47.612;7.610;2023-02-15T06:16:56;101471.25;;;-1.65;74.00
9307;BME280;4691;47.612;7.610;2023-02-15T06:19:22;101429.28;;;-1.63;73.02
9307;BME280;4691;47.612;7.610;2023-02-15T06:21:48;101407.38;;;-1.65;72.84
9307;BME280;4691;47.612;7.610;2023-02-15T06:24:13;101383.78;;;-1.65;71.64
9307;BME280;4691;47.612;7.610;2023-02-15T06:26:39;101366.44;;;-1.52;69.31
9307;BME280;4691;47.612;7.610;2023-02-15T06:29:04;101334.94;;;-1.52;68.51
9307;BME280;4691;47.612;7.610;2023-02-15T06:31:29;101319.28;;;-1.46;66.88
9307;BME280;4691;47.612;7.610;2023-02-15T06:33:55;101311.34;;;-1.51;67.01
9307;BME280;4691;47.612;7.610;2023-02-15T06:36:27;101299.13;;;-1.49;66.12
9307;BME280;4691;47.612;7.610;2023-02-15T06:38:53;101283.41;;;-1.46;64.79
9307;BME280;4691;47.612;7.610;2023-02-15T06:41:19;101292.09;;;-1.50;64.39
9307;BME280;4691;47.612;7.610;2023-02-15T06:43:44;101283.38;;;-1.49;63.56
9307;BME280;4691;47.612;7.610;2023-02-15T06:46:09;101261.59;;;-1.37;62.08
9307;BME280;4691;47.612;7.610;2023-02-15T06:48:35;101264.19;;;-1.42;61.77
9307;BME280;4691;47.612;7.610;2023-02-15T06:51:00;101239.75;;;-1.35;60.92
9307;BME280;4691;47.612;7.610;2023-02-15T06:53:25;101223.16;;;-1.30;60.12
9307;BME280;4691;47.612;7.610;2023-02-15T06:55:51;101171.53;;;-1.28;59.70
9307;BME280;4691;47.612;7.610;2023-02-15T06:58:16;101126.94;;;-1.24;59.61
9307;BME280;4691;47.612;7.610;2023-02-15T07:00:41;101110.38;;;-1.15;58.67
9307;BME280;4691;47.612;7.610;2023-02-15T07:03:06;101118.25;;;-1.17;58.55
9307;BME280;4691;47.612;7.610;2023-02-15T07:05:33;101118.25;;;-1.14;57.94
9307;BME280;4691;47.612;7.610;2023-02-15T07:07:59;101103.44;;;-1.01;56.68
9307;BME280;4691;47.612;7.610;2023-02-15T07:10:25;101094.75;;;-0.88;55.42
9307;BME280;4691;47.612;7.610;2023-02-15T07:12:51;101075.53;;;-0.83;54.80
9307;BME280;4691;47.612;7.610;2023-02-15T07:15:18;101052.72;;;-0.91;54.88
9307;BME280;4691;47.612;7.610;2023-02-15T07:17:46;100865.34;;;-0.85;54.54
9307;BME280;4691;47.612;7.610;2023-02-15T07:20:14;100793.53;;;-0.76;53.75
9307;BME280;4691;47.612;7.610;2023-02-15T07:22:40;100777.78;;;-0.64;53.04
9307;BME280;4691;47.612;7.610;2023-02-15T07:25:07;100775.13;;;-0.62;53.43
9307;BME280;4691;47.612;7.610;2023-02-15T07:27:33;100768.97;;;-0.57;53.80
9307;BME280;4691;47.612;7.610;2023-02-15T07:29:59;100769.88;;;-0.58;54.74
9307;BME280;4691;47.612;7.610;2023-02-15T07:32:30;100757.56;;;-0.47;55.39
9307;BME280;4691;47.612;7.610;2023-02-15T07:34:56;100765.44;;;-0.37;55.64
9307;BME280;4691;47.612;7.610;2023-02-15T07:37:22;100757.56;;;-0.28;55.18
9307;BME280;4691;47.612;7.610;2023-02-15T07:39:47;100764.53;;;-0.18;54.99
9307;BME280;4691;47.612;7.610;2023-02-15T07:42:12;100758.38;;;-0.14;55.19
9307;BME280;4691;47.612;7.610;2023-02-15T07:44:37;100756.59;;;-0.09;55.50
9307;BME280;4691;47.612;7.610;2023-02-15T07:47:03;100739.91;;;0.03;55.32
9307;BME280;4691;47.612;7.610;2023-02-15T07:49:28;100745.13;;;0.08;55.76
9307;BME280;4691;47.612;7.610;2023-02-15T07:51:53;100744.19;;;0.18;55.94
9307;BME280;4691;47.612;7.610;2023-02-15T07:54:19;100743.31;;;0.24;56.39
9307;BME280;4691;47.612;7.610;2023-02-15T07:56:44;100733.53;;;0.41;56.19
9307;BME280;4691;47.612;7.610;2023-02-15T07:59:09;100723.91;;;0.41;57.10
9307;BME280;4691;47.612;7.610;2023-02-15T08:01:36;100715.03;;;0.53;57.85
9307;BME280;4691;47.612;7.610;2023-02-15T08:04:03;100700.13;;;0.54;58.98
9307;BME280;4691;47.612;7.610;2023-02-15T08:06:32;100689.59;;;0.57;60.11
9307;BME280;4691;47.612;7.610;2023-02-15T08:08:58;100669.31;;;0.67;61.27
9307;BME280;4691;47.612;7.610;2023-02-15T08:11:26;100660.56;;;0.64;62.61
9307;BME280;4691;47.612;7.610;2023-02-15T08:19:12;100599.56;;;1.07;64.25
9307;BME280;4691;47.612;7.610;2023-02-15T08:21:40;100580.31;;;1.01;67.10
9307;BME280;4691;47.612;7.610;2023-02-15T08:24:07;100576.00;;;0.95;69.90
9307;BME280;4691;47.612;7.610;2023-02-15T08:26:33;100547.53;;;1.25;70.00
9307;BME280;4691;47.612;7.610;2023-02-15T08:28:59;100533.28;;;1.38;71.53
9307;BME280;4691;47.612;7.610;2023-02-15T08:31:26;100516.66;;;1.35;75.55
9307;BME280;4691;47.612;7.610;2023-02-15T08:33:53;100495.47;;;1.42;79.07
9307;BME280;4691;47.612;7.610;2023-02-15T08:36:21;100467.13;;;1.57;82.73
9307;BME280;4691;47.612;7.610;2023-02-15T08:38:47;100433.50;;;1.72;88.16
9307;BME280;4691;47.612;7.610;2023-02-15T08:43:41;100327.94;;;1.76;100.00
9307;BME280;4691;47.612;7.610;2023-02-15T08:46:07;99458.13;;;1.87;100.00
9307;BME280;4691;47.612;7.610;2023-02-15T08:48:33;100561.38;;;2.04;100.00
9307;BME280;4691;47.612;7.610;2023-02-15T08:51:04;100487.09;;;2.27;100.00
9307;BME280;4691;47.612;7.610;2023-02-15T08:53:30;100242.22;;;2.38;100.00
9307;BME280;4691;47.612;7.610;2023-02-15T08:55:56;100142.03;;;2.34;100.00
9307;BME280;4691;47.612;7.610;2023-02-15T08:58:22;100008.69;;;2.52;100.00
9307;BME280;4691;47.612;7.610;2023-02-15T09:00:48;99857.84;;;2.63;100.00
9307;BME280;4691;47.612;7.610;2023-02-15T09:03:13;99715.47;;;2.83;100.00
9307;BME280;4691;47.612;7.610;2023-02-15T09:05:38;99574.13;;;2.96;100.00
9307;BME280;4691;47.612;7.610;2023-02-15T09:08:04;99434.72;;;3.03;100.00
9307;BME280;4691;47.612;7.610;2023-02-15T09:10:29;99321.78;;;3.08;100.00
9307;BME280;4691;47.612;7.610;2023-02-15T09:12:54;99229.09;;;3.35;100.00
9307;BME280;4691;47.612;7.610;2023-02-15T09:15:20;99117.28;;;3.52;100.00
9307;BME280;4691;47.612;7.610;2023-02-15T09:17:45;99012.91;;;3.60;100.00
9307;BME280;4691;47.612;7.610;2023-02-15T09:20:10;98939.56;;;3.83;100.00
9307;BME280;4691;47.612;7.610;2023-02-15T09:22:36;98905.00;;;4.03;100.00
9307;BME280;4691;47.612;7.610;2023-02-15T09:25:01;98893.13;;;4.12;100.00
9307;BME280;4691;47.612;7.610;2023-02-15T09:27:26;98909.00;;;4.12;100.00
9307;BME280;4691;47.612;7.610;2023-02-15T09:29:51;98910.56;;;4.33;100.00
9307;BME280;4691;47.612;7.610;2023-02-15T09:32:17;98934.38;;;4.51;100.00
9307;BME280;4691;47.612;7.610;2023-02-15T09:34:42;98948.63;;;4.66;100.00
9307;BME280;4691;47.612;7.610;2023-02-15T09:37:08;98969.81;;;4.83;100.00
9307;BME280;4691;47.612;7.610;2023-02-15T09:39:33;98994.81;;;4.95;100.00
9307;BME280;4691;47.612;7.610;2023-02-15T09:42:31;99001.38;;;5.21;100.00
9307;BME280;4691;47.612;7.610;2023-02-15T09:45:19;99091.75;;;5.34;100.00
9307;BME280;4691;47.612;7.610;2023-02-15T09:48:20;99115.72;;;5.32;100.00
9307;BME280;4691;47.612;7.610;2023-02-15T09:51:29;99146.63;;;5.66;100.00
9307;BME280;4691;47.612;7.610;2023-02-15T09:54:41;99186.56;;;5.81;100.00
9307;BME280;4691;47.612;7.610;2023-02-15T09:58:16;99206.69;;;6.02;100.00
9307;BME280;4691;47.612;7.610;2023-02-15T10:19:38;99596.53;;;13.89;100.00
9307;BME280;4691;47.612;7.610;2023-02-15T10:25:28;99815.06;;;17.28;100.00
9307;BME280;4691;47.612;7.610;2023-02-15T10:28:04;99827.97;;;16.32;100.00
9307;BME280;4691;47.612;7.610;2023-02-15T10:30:43;99830.06;;;16.28;100.00
9307;BME280;4691;47.612;7.610;2023-02-15T10:33:42;99824.06;;;17.38;100.00
9307;BME280;4691;47.612;7.610;2023-02-15T10:38:53;99808.84;;;16.66;100.00
9307;BME280;4691;47.612;7.610;2023-02-15T10:47:39;99847.09;;;18.21;100.00
9307;BME280;4691;47.612;7.610;2023-02-15T10:58:36;99938.63;;;16.85;100.00
9307;BME280;4691;47.612;7.610;2023-02-15T11:06:37;99866.94;;;18.88;100.00
9307;BME280;4691;47.612;7.610;2023-02-15T11:09:09;99878.66;;;18.60;100.00
9307;BME280;4691;47.612;7.610;2023-02-15T11:11:39;99871.34;;;18.99;100.00
9307;BME280;4691;47.612;7.610;2023-02-15T11:14:51;99925.22;;;16.09;100.00
9307;BME280;4691;47.612;7.610;2023-02-15T11:17:25;99854.63;;;19.04;100.00
9307;BME280;4691;47.612;7.610;2023-02-15T11:20:19;99841.84;;;18.86;100.00
9307;BME280;4691;47.612;7.610;2023-02-15T11:22:49;99853.13;;;18.82;100.00
9307;BME280;4691;47.612;7.610;2023-02-15T11:25:19;99799.34;;;20.14;100.00
9307;BME280;4691;47.612;7.610;2023-02-15T11:27:46;99869.44;;;18.33;100.00
9307;BME280;4691;47.612;7.610;2023-02-15T11:30:17;99766.84;;;22.49;100.00
9307;BME280;4691;47.612;7.610;2023-02-15T11:32:46;99788.59;;;20.22;100.00
9307;BME280;4691;47.612;7.610;2023-02-15T11:40:26;99792.16;;;20.05;100.00
9307;BME280;4691;47.612;7.610;2023-02-15T11:42:58;99845.00;;;17.46;100.00
9307;BME280;4691;47.612;7.610;2023-02-15T11:45:31;99750.47;;;23.44;100.00
9307;BME280;4691;47.612;7.610;2023-02-15T11:47:58;99703.03;;;23.22;100.00
9307;BME280;4691;47.612;7.610;2023-02-15T11:50:27;99764.25;;;19.94;100.00
9307;BME280;4691;47.612;7.610;2023-02-15T11:53:17;99706.91;;;23.28;100.00
9307;BME280;4691;47.612;7.610;2023-02-15T11:55:44;99844.03;;;17.16;100.00
9307;BME280;4691;47.612;7.610;2023-02-15T12:01:09;99843.56;;;17.41;100.00
9307;BME280;4691;47.612;7.610;2023-02-15T12:03:43;99856.72;;;17.75;100.00
9307;BME280;4691;47.612;7.610;2023-02-15T12:06:16;99785.19;;;20.02;100.00
9307;BME280;4691;47.612;7.610;2023-02-15T12:08:50;99754.50;;;20.54;100.00
9307;BME280;4691;47.612;7.610;2023-02-15T12:11:22;99831.75;;;19.62;100.00
9307;BME280;4691;47.612;7.610;2023-02-15T12:14:00;99815.13;;;17.67;100.00
9307;BME280;4691;47.612;7.610;2023-02-15T12:16:33;99777.03;;;19.48;100.00
9307;BME280;4691;47.612;7.610;2023-02-15T12:19:00;99718.72;;;20.58;100.00
9307;BME280;4691;47.612;7.610;2023-02-15T12:21:34;99718.16;;;22.46;100.00
9307;BME280;4691;47.612;7.610;2023-02-15T12:24:38;99706.13;;;22.72;100.00
9307;BME280;4691;47.612;7.610;2023-02-15T12:27:15;99762.31;;;20.31;100.00
9307;BME280;4691;47.612;7.610;2023-02-15T12:29:44;99688.53;;;23.68;100.00
9307;BME280;4691;47.612;7.610;2023-02-15T12:32:17;99723.41;;;20.82;100.00
9307;BME280;4691;47.612;7.610;2023-02-15T12:34:43;99734.53;;;21.72;100.00
9307;BME280;4691;47.612;7.610;2023-02-15T12:37:25;99684.91;;;22.59;100.00
9307;BME280;4691;47.612;7.610;2023-02-15T12:39:59;99686.03;;;21.68;100.00
9307;BME280;4691;47.612;7.610;2023-02-15T12:42:26;99711.03;;;21.96;100.00
9307;BME280;4691;47.612;7.610;2023-02-15T12:45:00;99771.50;;;18.47;100.00
9307;BME280;4691;47.612;7.610;2023-02-15T12:47:26;99670.75;;;22.64;100.00
9307;BME280;4691;47.612;7.610;2023-02-15T12:50:15;99729.59;;;20.58;100.00
9307;BME280;4691;47.612;7.610;2023-02-15T12:52:48;99623.50;;;25.27;100.00
9307;BME280;4691;47.612;7.610;2023-02-15T12:55:22;99622.16;;;24.50;100.00
9307;BME280;4691;47.612;7.610;2023-02-15T12:57:48;99717.56;;;20.61;100.00
9307;BME280;4691;47.612;7.610;2023-02-15T13:02:50;99698.38;;;21.21;100.00
9307;BME280;4691;47.612;7.610;2023-02-15T13:05:25;99636.19;;;23.41;100.00
9307;BME280;4691;47.612;7.610;2023-02-15T13:08:02;99620.66;;;24.47;100.00
9307;BME280;4691;47.612;7.610;2023-02-15T13:10:33;99714.25;;;19.79;100.00
9307;BME280;4691;47.612;7.610;2023-02-15T13:13:00;99611.53;;;24.25;100.00
9307;BME280;4691;47.612;7.610;2023-02-15T13:15:35;99578.50;;;25.57;100.00
9307;BME280;4691;47.612;7.610;2023-02-15T13:18:02;99600.22;;;24.28;100.00
9307;BME280;4691;47.612;7.610;2023-02-15T13:20:29;99592.97;;;24.87;100.00
9307;BME280;4691;47.612;7.610;2023-02-15T13:23:09;99663.41;;;22.00;100.00
9307;BME280;4691;47.612;7.610;2023-02-15T13:25:46;99698.53;;;20.61;100.00
9307;BME280;4691;47.612;7.610;2023-02-15T13:28:19;99563.91;;;26.06;100.00
9307;BME280;4691;47.612;7.610;2023-02-15T13:30:47;99528.06;;;26.01;100.00
9307;BME280;4691;47.612;7.610;2023-02-15T13:33:25;99512.56;;;28.03;100.00
9307;BME280;4691;47.612;7.610;2023-02-15T13:36:01;99561.72;;;24.96;100.00
9307;BME280;4691;47.612;7.610;2023-02-15T13:41:30;99564.66;;;25.66;100.00
9307;BME280;4691;47.612;7.610;2023-02-15T13:44:18;99573.72;;;24.44;100.00
9307;BME280;4691;47.612;7.610;2023-02-15T13:46:55;99592.47;;;24.98;100.00
9307;BME280;4691;47.612;7.610;2023-02-15T13:49:49;99604.91;;;23.06;100.00
9307;BME280;4691;47.612;7.610;2023-02-15T13:52:27;99572.63;;;24.74;100.00
9307;BME280;4691;47.612;7.610;2023-02-15T14:00:52;99498.56;;;26.03;100.00
9307;BME280;4691;47.612;7.610;2023-02-15T14:09:20;99538.53;;;25.13;100.00
9307;BME280;4691;47.612;7.610;2023-02-15T14:22:22;99539.72;;;24.46;100.00
9307;BME280;4691;47.612;7.610;2023-02-15T14:25:23;99479.94;;;28.13;100.00
9307;BME280;4691;47.612;7.610;2023-02-15T14:30:47;99463.91;;;28.04;100.00
9307;BME280;4691;47.612;7.610;2023-02-15T14:33:35;99469.16;;;28.18;100.00
9307;BME280;4691;47.612;7.610;2023-02-15T14:36:04;99480.03;;;27.73;100.00
9307;BME280;4691;47.612;7.610;2023-02-15T14:38:52;99550.31;;;23.67;100.00
9307;BME280;4691;47.612;7.610;2023-02-15T14:41:37;99492.53;;;27.56;100.00
9307;BME280;4691;47.612;7.610;2023-02-15T14:44:38;99563.66;;;24.81;100.00
9307;BME280;4691;47.612;7.610;2023-02-15T14:47:14;99547.28;;;24.66;100.00
9307;BME280;4691;47.612;7.610;2023-02-15T14:49:42;99616.00;;;22.34;100.00
9307;BME280;4691;47.612;7.610;2023-02-15T14:52:09;99553.53;;;25.95;100.00
9307;BME280;4691;47.612;7.610;2023-02-15T15:02:45;99526.41;;;25.23;100.00
9307;BME280;4691;47.612;7.610;2023-02-15T15:05:22;99541.09;;;24.42;100.00
9307;BME280;4691;47.612;7.610;2023-02-15T15:07:54;99599.81;;;21.36;100.00
9307;BME280;4691;47.612;7.610;2023-02-15T15:12:53;99606.13;;;21.44;100.00
9307;BME280;4691;47.612;7.610;2023-02-15T15:21:03;99586.44;;;22.14;100.00
9307;BME280;4691;47.612;7.610;2023-02-15T15:23:39;99601.34;;;22.35;100.00
9307;BME280;4691;47.612;7.610;2023-02-15T15:26:26;99652.00;;;20.04;100.00
9307;BME280;4691;47.612;7.610;2023-02-15T15:31:24;99761.69;;;15.33;100.00
9307;BME280;4691;47.612;7.610;2023-02-15T15:36:56;99778.16;;;15.18;100.00
9307;BME280;4691;47.612;7.610;2023-02-15T15:39:57;99800.22;;;14.67;100.00
9307;BME280;4691;47.612;7.610;2023-02-15T15:45:51;99794.53;;;14.48;100.00
9307;BME280;4691;47.612;7.610;2023-02-15T15:48:28;99786.59;;;14.00;100.00
9307;BME280;4691;47.612;7.610;2023-02-15T15:50:57;99781.69;;;13.82;100.00
9307;BME280;4691;47.612;7.610;2023-02-15T15:53:26;99784.00;;;13.87;100.00
9307;BME280;4691;47.612;7.610;2023-02-15T15:55:58;99768.78;;;13.39;100.00